Terminal Aerodrome Forecast
Issued by NWS

Home | Current Version | Previous Version | Text Only | Print | Product List | Glossary On
Versions: 1 2 3 4 5 6 7 8 9 10 11 12 13 14
000
FTUS41 KCAR 170757 AAA
TAFBHB
TAF AMD
KBHB 170757Z 1708/1806 VRB02KT 1 1/2SM -SN SCT025 OVC035
     FM170900 VRB02KT 1SM -SN OVC025
     FM171500 13005KT 1SM -SN OVC015
     FM171700 12004KT 1SM -SN OVC010
     FM180300 04009KT 3SM -SN OVC010
     FM180500 33011KT P6SM OVC010=

USA.gov is the U.S. government's official web portal to all federal, state and local government web resources and services.